createdAt,value
2022-12-13T00:02:56.180Z,19.6
2022-12-13T00:08:35.449Z,19.4
2022-12-13T00:14:13.106Z,19.4
2022-12-13T00:19:51.494Z,21.8
2022-12-13T00:25:36.266Z,21.4
2022-12-13T00:31:53.192Z,19.9
2022-12-13T00:37:34.561Z,19.6
2022-12-13T00:42:56.354Z,19.3
2022-12-13T00:48:36.073Z,21.3
2022-12-13T00:54:13.717Z,22
2022-12-13T00:59:42.463Z,20.2
2022-12-13T01:05:38.779Z,19.6
2022-12-13T01:11:36.584Z,19.3
2022-12-13T01:17:14.979Z,20.6
2022-12-13T01:22:54.528Z,21.9
2022-12-13T01:28:21.637Z,20.8
2022-12-13T01:34:05.146Z,19.7
2022-12-13T01:40:16.571Z,21.5
2022-12-13T01:46:18.379Z,21.3
2022-12-13T01:52:07.028Z,19.8
2022-12-13T01:58:03.162Z,19.4
2022-12-13T02:03:21.542Z,19.1
2022-12-13T02:08:53.241Z,21.1
2022-12-13T02:14:30.646Z,21.9
2022-12-13T02:20:21.439Z,18.9
2022-12-13T02:26:06.833Z,21.4
2022-12-13T02:32:18.754Z,21.8
2022-12-13T02:37:51.871Z,19.9
2022-12-13T02:43:51.421Z,20.9
2022-12-13T02:49:52.691Z,21.9
2022-12-13T02:55:33.657Z,20.1
2022-12-13T03:01:00.861Z,20.4
2022-12-13T03:06:40.431Z,21.9
2022-12-13T03:12:04.442Z,20.6
2022-12-13T03:17:31.943Z,19.6
2022-12-13T03:28:52.862Z,21.9
2022-12-13T03:34:43.179Z,19.9
2022-12-13T03:40:53.269Z,20.3
2022-12-13T03:46:31.690Z,21.8
2022-12-13T03:52:25.744Z,20.8
2022-12-13T03:58:25.520Z,19.4
2022-12-13T04:04:11.488Z,21.4
2022-12-13T04:10:44.075Z,21.3
2022-12-13T04:16:25.526Z,19.6
2022-12-13T04:21:54.021Z,20.9
2022-12-13T04:27:36.744Z,20.4
2022-12-13T04:33:17.618Z,19.3
2022-12-13T04:38:45.688Z,21.3
2022-12-13T04:43:49.167Z,21.6
2022-12-13T04:49:39.619Z,19.8
2022-12-13T04:54:58.369Z,20.1
2022-12-13T05:00:37.719Z,21.6
2022-12-13T05:06:03.901Z,20.9
2022-12-13T05:12:22.230Z,19.6
2022-12-13T05:18:10.951Z,21
2022-12-13T05:23:40.433Z,21.9
2022-12-13T05:29:37.584Z,19.9
2022-12-13T05:35:21.712Z,19.3
2022-12-13T05:41:26.856Z,18.9
2022-12-13T05:47:04.568Z,18.8
2022-12-13T05:52:34.824Z,18.6
2022-12-13T05:58:13.204Z,20
2022-12-13T06:04:22.714Z,21.3
2022-12-13T06:10:34.490Z,19.8
2022-12-13T06:18:11.981Z,18.9
2022-12-13T06:23:57.661Z,18.5
2022-12-13T06:29:22.994Z,18.5
2022-12-13T06:35:47.127Z,19.4
2022-12-13T06:41:34.711Z,21
2022-12-13T06:47:30.875Z,20.1
2022-12-13T06:53:14.520Z,19.1
2022-12-13T06:59:01.308Z,20.6
2022-12-13T07:05:36.801Z,20.6
2022-12-13T07:11:31.070Z,19.2
2022-12-13T07:23:16.123Z,18.4
2022-12-13T07:29:13.113Z,18.3
2022-12-13T07:35:06.103Z,20.3
2022-12-13T07:41:11.586Z,18.4
2022-12-13T07:46:55.602Z,18.9
2022-12-13T07:52:54.562Z,20.8
2022-12-13T07:58:58.818Z,20.8
2022-12-13T08:04:55.763Z,19.2
2022-12-13T08:10:48.240Z,20.3
2022-12-13T08:16:43.700Z,21.2
2022-12-13T08:23:20.045Z,19.4
2022-12-13T08:29:09.913Z,18.6
2022-12-13T08:35:03.153Z,18.3
2022-12-13T08:40:46.893Z,18.3
2022-12-13T08:46:35.442Z,20
2022-12-13T08:58:19.029Z,20.1
2022-12-13T09:04:03.474Z,18.8
2022-12-13T09:10:45.084Z,20.6
2022-12-13T09:17:54.938Z,20.3
2022-12-13T09:25:02.294Z,18.8
2022-12-13T09:31:09.433Z,18.4
2022-12-13T09:37:09.633Z,18.9
2022-12-13T09:43:50.310Z,20.9
2022-12-13T09:52:10.365Z,20
2022-12-13T09:58:41.715Z,19
2022-12-13T10:04:27.380Z,21.1
2022-12-13T10:10:23.248Z,18.3
2022-12-13T10:16:12.085Z,20.7
2022-12-13T10:22:19.471Z,20.9
2022-12-13T10:29:28.208Z,18.9
2022-12-13T10:35:25.152Z,18.6
2022-12-13T10:41:06.682Z,18.3
2022-12-13T10:46:56.103Z,20.4
2022-12-13T10:52:49.300Z,21.4
2022-12-13T10:59:15.280Z,19.3
2022-12-13T11:05:22.876Z,20.1
2022-12-13T11:11:17.579Z,21.4
2022-12-13T11:17:04.561Z,19.4
2022-12-13T11:22:51.682Z,19.4
2022-12-13T11:29:01.719Z,21.3
2022-12-13T11:34:40.486Z,19.7
2022-12-13T11:45:47.337Z,20.9
2022-12-13T11:51:42.129Z,20.4
2022-12-13T11:57:18.207Z,18.9
2022-12-13T12:04:03.357Z,20.6
2022-12-13T12:10:52.605Z,20.5
2022-12-13T12:16:45.876Z,18.8
2022-12-13T12:23:07.944Z,20.4
2022-12-13T12:29:01.675Z,19.1
2022-12-13T12:35:02.115Z,20.7
2022-12-13T12:41:07.459Z,20.7
2022-12-13T12:49:37.442Z,18.9
2022-12-13T12:55:22.687Z,18.4
2022-12-13T13:01:09.774Z,18.4
2022-12-13T13:07:22.313Z,18.1
2022-12-13T13:14:24.135Z,18.1
2022-12-13T13:20:11.431Z,18.1
2022-12-13T13:27:21.987Z,20.6
2022-12-13T13:33:19.974Z,21.2
2022-12-13T13:38:48.362Z,19.1
2022-12-13T13:44:46.425Z,18.6
2022-12-13T13:50:35.561Z,18.3
2022-12-13T13:56:24.900Z,18
2022-12-13T14:02:42.171Z,17.1
2022-12-13T14:08:37.810Z,16.7
2022-12-13T14:14:22.217Z,16.8
2022-12-13T14:31:54.118Z,16.9
2022-12-13T14:38:14.457Z,16.7
2022-12-13T14:44:04.444Z,16.5
2022-12-13T14:49:58.269Z,16.3
2022-12-13T14:55:50.071Z,16.2
2022-12-13T15:01:35.378Z,16
2022-12-13T15:07:39.214Z,15.9
2022-12-13T15:13:48.347Z,15.9
2022-12-13T15:25:13.926Z,24.1
2022-12-13T15:31:08.849Z,26.8
2022-12-13T15:37:27.972Z,28.4
2022-12-13T15:43:10.257Z,28.7
2022-12-13T15:49:09.329Z,29.4
2022-12-13T15:54:51.360Z,29.6
2022-12-13T16:00:30.321Z,28.6
2022-12-13T16:06:13.132Z,27.4
2022-12-13T16:12:07.888Z,26.3
2022-12-13T16:18:17.046Z,26.2
2022-12-13T16:24:23.004Z,30.3
2022-12-13T16:30:12.117Z,30.9
2022-12-13T16:36:32.030Z,30.2
2022-12-13T16:42:49.302Z,30.2
2022-12-13T16:50:15.609Z,30.1
2022-12-13T16:55:58.256Z,28.2
2022-12-13T17:01:22.156Z,29.6
2022-12-13T17:07:07.031Z,29.9
2022-12-13T17:12:58.832Z,29.6
2022-12-13T17:18:46.569Z,27.1
2022-12-13T17:24:42.310Z,30.3
2022-12-13T17:30:19.959Z,30
2022-12-13T17:35:52.725Z,31.9
2022-12-13T17:41:34.743Z,32.1
2022-12-13T17:47:13.225Z,31.4
2022-12-13T17:52:59.587Z,30.1
2022-12-13T17:58:23.695Z,30.4
2022-12-13T18:03:47.508Z,31
2022-12-13T18:09:15.464Z,30.1
2022-12-13T18:15:36.687Z,30.2
2022-12-13T18:22:15.021Z,30.3
2022-12-13T18:27:50.351Z,29.9
2022-12-13T18:33:32.448Z,28.5
2022-12-13T18:39:11.499Z,29.6
2022-12-13T18:45:11.874Z,30.7
2022-12-13T18:50:29.407Z,31.7
2022-12-13T18:56:02.781Z,32.3
2022-12-13T19:01:36.038Z,32.5
2022-12-13T19:07:26.300Z,31.4
2022-12-13T19:12:42.008Z,31.4
2022-12-13T19:18:16.262Z,31.1
2022-12-13T19:23:48.416Z,30.2
2022-12-13T19:29:32.476Z,29.7
2022-12-13T19:40:40.173Z,29.8
2022-12-13T19:46:23.820Z,29.9
2022-12-13T19:52:02.330Z,29.1
2022-12-13T19:57:41.701Z,28.6
2022-12-13T20:02:49.145Z,28.9
2022-12-13T20:08:33.031Z,28.1
2022-12-13T20:14:04.111Z,28.2
2022-12-13T20:19:43.358Z,26
2022-12-13T20:31:04.348Z,29.3
2022-12-13T20:37:05.829Z,29.6
2022-12-13T20:42:44.331Z,29.2
2022-12-13T20:53:41.933Z,28.6
2022-12-13T20:59:14.146Z,26.6
2022-12-13T21:04:37.812Z,27.2
2022-12-13T21:10:03.354Z,25.1
2022-12-13T21:15:52.064Z,25.4
2022-12-13T21:21:37.652Z,24.7
2022-12-13T21:27:20.268Z,22.9
2022-12-13T21:32:58.221Z,24.1
2022-12-13T21:38:39.684Z,24.3
2022-12-13T21:44:22.392Z,22.6
2022-12-13T21:50:46.621Z,22
2022-12-13T21:57:02.403Z,21.6
2022-12-13T22:02:25.383Z,21.5
2022-12-13T22:07:48.109Z,21.4
2022-12-13T22:13:16.866Z,21.3
2022-12-13T22:19:01.003Z,21.1
2022-12-13T22:24:38.861Z,20.9
2022-12-13T22:30:05.616Z,20.8
2022-12-13T22:41:08.716Z,20.7
2022-12-13T22:46:46.905Z,20.4
2022-12-13T22:52:09.308Z,20.1
2022-12-13T22:57:51.843Z,19.9
2022-12-13T23:03:31.573Z,19.9
2022-12-13T23:09:00.886Z,22.1
2022-12-13T23:14:08.086Z,21.2
2022-12-13T23:20:27.726Z,20.3
2022-12-13T23:26:09.579Z,19.9
2022-12-13T23:31:32.727Z,19.6
2022-12-13T23:37:17.113Z,21.8
2022-12-13T23:42:28.073Z,21.2
2022-12-13T23:48:12.768Z,20.1
2022-12-13T23:53:51.571Z,19.8
2022-12-13T23:59:28.646Z,19.4
